Tiempo atmosférico en la estación meteorológica de La Vall de Bianya, Girona (440 m.)



Fecha
DESCASC
Temp. máxima en grados centígrados (hora)
DESCASC
Temp. mínima en grados centígrados (hora)
DESCASC
Temp. media en grados centígrados
DESCASC
Racha de viento máxima en m/sg (hora)
DESCASC
Velocidad máxima media en intervalos de 10 minutos(hora)
DESCASC
Precipitaciones diarias en mm
DESCASC
Precipitaciones de 00:00 a 06:00 en mm
DESCASC
Precipitaciones de 06:00 a 12:00 en mm
DESCASC
Precipitaciones de 12:00 a 18:00 en mm
DESCASC
Precipitaciones de 18:00 a 24:00 en mm
DESCASC
20-01-2019 9.6 (15:20) -1.3 (23:40) 4.2 4.17 (16:20) 2.22 (16:30) 0.2 0 0.2 0 0
19-01-2019 12.2 (15:00) -3 (08:50) 4.6 5.28 (16:00) 2.78 (15:20) 0 0 0 0 0
18-01-2019 11 (14:50) -1.3 (-00:0) 4.9 3.33 (16:50) 1.67 (15:50) 0 0 0 0 0
17-01-2019 11.9 (14:10) -1.1 (-00:0) 5.4 2.78 (13:30) 1.67 (13:40) 0 0 0 0 0
16-01-2019 12.6 (14:50) -4.2 (-00:0) 4.2 4.72 (15:30) 2.5 (14:20) 0 0 0 0 0
15-01-2019 13.8 (13:40) -3.5 (-00:0) 5.2 3.33 (01:20) 1.39 (01:30) 0 0 0 0 0
14-01-2019 15.6 (13:40) -0.7 (-00:0) 7.5 6.67 (09:00) 2.78 (09:00) 0 0 0 0 0
13-01-2019 13.9 (15:10) -3.8 (-00:0) 5 4.72 (14:30) 2.78 (14:30) 0 0 0 0 0
12-01-2019 12.5 (14:20) -4.7 (-00:0) 3.9 4.72 (16:20) 2.78 (16:20) 0 0 0 0 0
11-01-2019 10.7 (15:00) -6.7 (-00:0) 2 5.83 (16:40) 3.06 (14:00) 0 0 0 0 0
10-01-2019 11.1 (12:50) -4.3 (-00:0) 3.4 20.56 (04:00) 10.56 (03:50) 0 0 0 0 0
09-01-2019 13.2 (15:10) -0.9 (-00:0) 6.1 12.5 (23:10) 5.56 (23:10) 0 0 0 0 0
08-01-2019 11.7 (13:20) -3.9 (-00:0) 3.9 5.28 (15:10) 3.06 (15:40) 0 0 0 0 0
07-01-2019 14.5 (14:10) -1.9 (-00:0) 6.3 6.67 (15:40) 3.33 (15:20) 0 0 0 0 0
06-01-2019 19.7 (14:40) -0.7 (-00:0) 9.5 7.78 (15:20) 3.33 (15:10) 0 0 0 0 0
05-01-2019 20.6 (14:50) -4.4 (-00:0) 8.1 8.61 (14:10) 3.89 (14:10) 0 0 0 0 0
04-01-2019 10.6 (14:40) -5.3 (-00:0) 2.7 5 (16:10) 2.78 (16:20) 0 0 0 0 0
03-01-2019 12.3 (14:20) -4.3 (-00:0) 4 5.56 (06:40) 2.5 (06:40) 0 0 0 0 0
02-01-2019 19.7 (15:50) -2.9 (-00:0) 8.4 8.06 (15:20) 3.33 (15:20) 0 0 0 0 0
01-01-2019 14.5 (13:30) -2.6 (-00:0) 6 5.28 (14:20) 2.78 (14:40) 0 0 0 0 0
31-12-2018 19.5 (14:10) -1.7 (-00:0) 8.9 7.22 (13:20) 2.78 (13:20) 0 0 0 0 0
30-12-2018 16.1 (15:00) -3.7 (-00:0) 6.2 3.89 (23:00) 2.22 (21:10) 0 0 0 0 0
29-12-2018 13.8 (14:50) -1.5 (-00:0) 6.2 4.72 (15:30) 2.78 (15:30) 0 0 0 0 0
28-12-2018 10.8 (14:40) -0.2 (00:00) 5.3 5 (13:40) 2.5 (13:40) 0 0 0 0 0
27-12-2018 13.6 (13:30) 0.7 (00:00) 7.2 4.72 (14:30) 2.78 (16:50) 0 0 0 0 0
26-12-2018 11.9 (14:50) 0.8 (00:00) 6.3 3.06 (16:50) 1.39 (07:00) 0 0 0 0 0
25-12-2018 15 (15:00) 1.3 (00:00) 8.1 5.28 (16:30) 2.78 (16:40) 0 0 0 0 0
24-12-2018 17.9 (14:50) 1.1 (08:20) 9.5 4.44 (14:50) 2.5 (15:00) 0 0 0 0 0
23-12-2018 17.4 (14:50) 1.2 (00:00) 9.3 1.67 (03:20) 0.83 (03:20) 0 0 0 0 0

Gráficas

Temp. máximas Temp. mínimas Temp. medias Precipitaciones Rachas de viento máximas Velocidades máximas media en intervalos de 10 minutos

Datos horarios

Fecha y hora oficial Temperatura (ºC) Velocidad del viento (km/h) Dirección del viento Racha (km/h) Dirección de racha Precipitación (mm) Presión (hPa) Tendencia (hPa) Humedad (%)
2019-01-21 23:00:00 -0.8 3 Oeste 9 Norte 0 -- -- 93
2019-01-21 22:00:00 -0.4 0 Calma 5 Norte 0 -- -- 92
2019-01-21 21:00:00 -0.1 3 Noroeste 8 Norte 0 -- -- 90
2019-01-21 20:00:00 0.8 2 Noroeste 6 Sudoeste 0 -- -- 86
2019-01-21 19:00:00 2.9 0 Calma 14 Sudoeste 0 -- -- 81
2019-01-21 18:00:00 6.2 3 Noroeste 24 Sur 0 -- -- 71
2019-01-21 17:00:00 8.1 13 Sur 22 Sur 0 -- -- 65
2019-01-21 16:00:00 11 5 Sur 13 Sur 0 -- -- 51
2019-01-21 15:00:00 10.6 6 Sudeste 14 Sudeste 0 -- -- 44
2019-01-21 14:00:00 10.7 5 Este 26 Norte 0 -- -- 38
2019-01-21 13:00:00 11.7 5 Sudeste 10 Sur 0 -- -- 37
2019-01-21 12:00:00 7.9 3 Sudeste 10 Sudeste 0 -- -- 72
2019-01-21 11:00:00 3.5 5 Sudoeste 9 Sudoeste 0 -- -- 95
2019-01-21 10:00:00 -0.4 0 Calma 6 Sudeste 0 -- -- 99
2019-01-21 09:00:00 -2.9 2 Este 10 Noroeste 0 -- -- 100
2019-01-21 08:00:00 -3.3 4 Noroeste 12 Noroeste 0 -- -- 99
2019-01-21 07:00:00 -3.7 3 Norte 8 Norte 0 -- -- 99
2019-01-21 06:00:00 -3.4 3 Nordeste 10 Oeste 0 -- -- 99
2019-01-21 05:00:00 -2.9 2 Este 10 Oeste 0 -- -- 99
2019-01-21 04:00:00 -3 2 Sur 12 Oeste 0 -- -- 99
2019-01-21 03:00:00 -2.6 2 Oeste 7 Sudoeste 0 -- -- 100
2019-01-21 02:00:00 -2.4 2 Oeste 8 Sudoeste 0 -- -- 100
2019-01-21 01:00:00 -2.1 0 Calma 4 Noroeste 0 -- -- 99
2019-01-21 00:00:00 -1.3 3 Sudoeste 7 Sudoeste 0 -- -- 98
2019-01-20 23:00:00 -0.8 0 Calma 4 Noroeste 0 -- -- 98
2019-01-20 22:00:00 -0.4 0 Calma 5 Norte 0 -- -- 97
2019-01-20 21:00:00 0.4 0 Calma 5 Oeste 0 -- -- 97
2019-01-20 20:00:00 1.1 2 Norte 6 Norte 0 -- -- 94
2019-01-20 19:00:00 2.5 0 Calma 3 Sudoeste 0 -- -- 91
2019-01-20 18:00:00 4.8 2 Sur 10 Sudeste 0 -- -- 86
2019-01-20 17:00:00 7.3 5 Sudeste 15 Sudeste 0 -- -- 79
2019-01-20 16:00:00 8.8 4 Sudeste 10 Sur 0 -- -- 72
2019-01-20 15:00:00 9.1 3 Sudeste 9 Este 0 -- -- 73
2019-01-20 14:00:00 7.8 2 Norte 6 Oeste 0 -- -- 74
2019-01-20 13:00:00 6.8 0 Calma 4 Nordeste 0 -- -- 84
2019-01-20 12:00:00 5.7 0 Calma 5 Oeste 0 -- -- 92
2019-01-20 11:00:00 4.7 4 Sur 7 Norte 0 -- -- 97
2019-01-20 10:00:00 3.7 2 Nordeste 5 Norte 0 -- -- 98
2019-01-20 09:00:00 3 2 Sudeste 10 Norte 0 -- -- 97
2019-01-20 08:00:00 2.4 2 Sudeste 4 Sudoeste 0.2 -- -- 97
2019-01-20 07:00:00 2.2 0 Calma 4 Noroeste 0 -- -- 95
2019-01-20 06:00:00 1.9 0 Calma 6 Sudoeste 0 -- -- 94
2019-01-20 05:00:00 1.2 3 Oeste 5 Sudoeste 0 -- -- 95
2019-01-20 04:00:00 0.3 0 Calma 5 Oeste 0 -- -- 95
2019-01-20 03:00:00 -0.1 3 Sudoeste 6 Este 0 -- -- 95
2019-01-20 02:00:00 -0.6 2 Nordeste 9 Oeste 0 -- -- 95
2019-01-20 01:00:00 -1.1 2 Oeste 5 Noroeste 0 -- -- 95
2019-01-20 00:00:00 -1.2 0 Calma 4 Sudoeste 0 -- -- 94
2019-01-19 23:00:00 -1.2 0 Calma 7 Oeste 0 -- -- 92
2019-01-19 22:00:00 -0.6 4 Oeste 6 Noroeste 0 -- -- 91
2019-01-19 21:00:00 0.2 4 Noroeste 8 Sudoeste 0 -- -- 88
2019-01-19 20:00:00 1.5 0 Calma 4 Sudoeste 0 -- -- 84
2019-01-19 19:00:00 3.6 2 Oeste 4 Oeste 0 -- -- 76
2019-01-19 18:00:00 6 0 Calma 9 Sur 0 -- -- 71
2019-01-19 17:00:00 9.1 4 Sudoeste 18 Sur 0 -- -- 56
2019-01-19 16:00:00 10.4 10 Sudeste 19 Sudeste 0 -- -- 46
2019-01-19 15:00:00 12.2 4 Este 14 Sudeste 0 -- -- 39
2019-01-19 14:00:00 11.5 9 Este 15 Este 0 -- -- 54
2019-01-19 13:00:00 10.4 4 Sudeste 6 Sudeste 0 -- -- 57
2019-01-19 12:00:00 9.9 2 Sudeste 6 Sudeste 0 -- -- 65
2019-01-19 11:00:00 4.6 0 Calma 4 Nordeste 0 -- -- 91
2019-01-19 10:00:00 -0.4 0 Calma 6 Sudoeste 0 -- -- 100
2019-01-19 09:00:00 -2.9 3 Oeste 5 Oeste 0 -- -- 100
2019-01-19 08:00:00 -2.5 3 Sur 6 Oeste 0 -- -- 100
2019-01-19 07:00:00 -2.2 3 Sudoeste 6 Oeste 0 -- -- 99
2019-01-19 06:00:00 -1.5 0 Calma 3 Norte 0 -- -- 99
2019-01-19 05:00:00 -0.4 0 Calma 6 Oeste 0 -- -- 98
2019-01-19 04:00:00 0.4 4 Oeste 8 Noroeste 0 -- -- 99
2019-01-19 03:00:00 1 0 Calma 5 Sudoeste 0 -- -- 98
2019-01-19 02:00:00 1.3 4 Sudoeste 5 Oeste 0 -- -- 98
2019-01-19 01:00:00 1.4 0 Calma 5 Oeste 0 -- -- 97
2019-01-19 00:00:00 1.8 0 Calma 3 Sudeste 0 -- -- 96
2019-01-18 23:00:00 2.2 0 Calma 6 Oeste 0 -- -- 95
2019-01-18 22:00:00 2.8 0 Calma 4 Norte 0 -- -- 94
2019-01-18 21:00:00 3.4 0 Calma 5 Noroeste 0 -- -- 92
2019-01-18 20:00:00 4.7 0 Calma 4 Oeste 0 -- -- 88
2019-01-18 19:00:00 5.6 3 Sudoeste 8 Este 0 -- -- 84
2019-01-18 18:00:00 7 5 Este 11 Sudeste 0 -- -- 80
2019-01-18 17:00:00 8.2 5 Este 12 Este 0 -- -- 74
2019-01-18 16:00:00 9.6 6 Nordeste 11 Este 0 -- -- 62
2019-01-18 15:00:00 10.6 4 Sudeste 9 Sudeste 0 -- -- 53
2019-01-18 14:00:00 9.7 2 Sudeste 6 Sudoeste 0 -- -- 57
2019-01-18 13:00:00 8.8 3 Oeste 5 Oeste 0 -- -- 65
2019-01-18 12:00:00 8.2 2 Sur 6 Sudoeste 0 -- -- 76
2019-01-18 11:00:00 4.5 3 Sudoeste 7 Sudoeste 0 -- -- 100
2019-01-18 10:00:00 -0.1 3 Oeste 5 Sudoeste 0 -- -- 100
2019-01-18 09:00:00 -1.3 0 Calma 6 Oeste 0 -- -- 100
2019-01-18 08:00:00 -1 2 Oeste 6 Oeste 0 -- -- 100
2019-01-18 07:00:00 -0.3 0 Calma 3 Sudeste 0 -- -- 100
2019-01-18 06:00:00 0.6 2 Oeste 8 Oeste 0 -- -- 100
2019-01-18 05:00:00 0.5 0 Calma 5 Oeste 0 -- -- 100
2019-01-18 04:00:00 0.3 0 Calma 6 Noroeste 0 -- -- 100
2019-01-18 03:00:00 0.6 3 Oeste 6 Oeste 0 -- -- 100
2019-01-18 02:00:00 0.3 3 Oeste 5 Oeste 0 -- -- 99
2019-01-18 01:00:00 1.3 0 Calma 5 Noroeste 0 -- -- 99
2019-01-18 00:00:00 3.1 2 Noroeste 5 Noroeste 0 -- -- 98
2019-01-17 23:00:00 3.7 0 Calma 4 Oeste 0 -- -- 97
2019-01-17 22:00:00 5.3 0 Calma 5 Noroeste 0 -- -- 97
2019-01-17 21:00:00 5.9 0 Calma 7 Sudoeste 0 -- -- 95
2019-01-17 20:00:00 6.4 0 Calma 3 Sudeste 0 -- -- 94
2019-01-17 19:00:00 7 0 Calma 5 Oeste 0 -- -- 90
2019-01-17 18:00:00 8.2 4 Oeste 6 Sudoeste 0 -- -- 84
2019-01-17 17:00:00 9 0 Calma 4 Oeste 0 -- -- 78
2019-01-17 16:00:00 10.5 0 Calma 5 Nordeste 0 -- -- 69
2019-01-17 15:00:00 11.9 4 Este 10 Este 0 -- -- 57
2019-01-17 14:00:00 11.7 4 Nordeste 10 Este 0 -- -- 58
2019-01-17 13:00:00 10.9 3 Este 5 Este 0 -- -- 71
2019-01-17 12:00:00 8.8 2 Sur 4 Sur 0 -- -- 84
2019-01-17 11:00:00 3.4 0 Calma 5 Sudoeste 0 -- -- 100
2019-01-17 10:00:00 0.5 0 Calma 5 Oeste 0 -- -- 100
2019-01-17 09:00:00 -1.1 0 Calma 4 Oeste 0 -- -- 100
2019-01-17 08:00:00 -0.7 0 Calma 4 Oeste 0 -- -- 100
2019-01-17 07:00:00 0 2 Noroeste 5 Oeste 0 -- -- 100
2019-01-17 06:00:00 -0.3 4 Oeste 5 Oeste 0 -- -- 100
2019-01-17 05:00:00 -0.4 3 Oeste 5 Oeste 0 -- -- 100
2019-01-17 04:00:00 -0.3 3 Oeste 4 Sudoeste 0 -- -- 100
2019-01-17 03:00:00 -0.7 0 Calma 3 Sudoeste 0 -- -- 100
2019-01-17 02:00:00 -0.9 0 Calma 5 Noroeste 0 -- -- 99
2019-01-17 01:00:00 -0.8 0 Calma 5 Noroeste 0 -- -- 99
2019-01-17 00:00:00 -1 3 Oeste 5 Noroeste 0 -- -- 99
2019-01-16 23:00:00 -0.6 0 Calma 4 Noroeste 0 -- -- 97
2019-01-16 22:00:00 0.1 0 Calma 7 Noroeste 0 -- -- 96
2019-01-16 21:00:00 0.9 0 Calma 6 Oeste 0 -- -- 95
2019-01-16 20:00:00 2.4 2 Oeste 6 Noroeste 0 -- -- 93
2019-01-16 19:00:00 3.9 0 Calma 5 Norte 0 -- -- 90
2019-01-16 18:00:00 6.4 0 Calma 9 Sudeste 0 -- -- 86
2019-01-16 17:00:00 9.5 6 Este 13 Este 0 -- -- 76
2019-01-16 16:00:00 11.6 6 Este 17 Este 0 -- -- 67
2019-01-16 15:00:00 12.6 9 Este 17 Este 0 -- -- 63
2019-01-16 14:00:00 12.3 6 Este 12 Este 0 -- -- 66
2019-01-16 13:00:00 10.5 3 Sur 6 Sudoeste 0 -- -- 70